Time;durP1;ratioP1;P1;durP2;ratioP2;P2;SDS_P1;SDS_P2;PMS_P1;PMS_P2;Temp;Humidity;BMP_temperature;BMP_pressure;BME280_temperature;BME280_humidity;BME280_pressure;Samples;Min_cycle;Max_cycle;Signal;HPM_P1;HPM_P2
2023/07/14 00:00:14;;;;;;;3.85;2.22;;;16.30;99.90;;;;;;5028246;28;20115;-90
2023/07/14 00:02:41;;;;;;;3.58;2.17;;;16.20;99.90;;;;;;5020846;28;20595;-90
2023/07/14 00:05:17;;;;;;;4.43;2.50;;;16.20;99.90;;;;;;5014896;28;20045;-90
2023/07/14 00:07:44;;;;;;;4.10;2.30;;;16.20;99.90;;;;;;5012300;28;20045;-90
2023/07/14 00:10:18;;;;;;;5.20;2.28;;;16.20;99.90;;;;;;5016446;28;20041;-90
2023/07/14 00:12:43;;;;;;;4.70;2.45;;;16.20;99.90;;;;;;5028554;28;20045;-91
2023/07/14 00:15:10;;;;;;;3.70;2.47;;;16.10;99.90;;;;;;5008731;28;20090;-91
2023/07/14 00:17:36;;;;;;;4.05;2.42;;;16.10;99.90;;;;;;5022836;28;20036;-91
2023/07/14 00:20:03;;;;;;;3.85;2.70;;;16.10;99.90;;;;;;5005093;28;20407;-91
2023/07/14 00:22:29;;;;;;;4.53;2.47;;;16.00;99.90;;;;;;5003165;28;20119;-90
2023/07/14 00:24:56;;;;;;;3.70;2.28;;;16.00;99.90;;;;;;5002894;28;20041;-90
2023/07/14 00:27:24;;;;;;;4.63;2.20;;;16.00;99.90;;;;;;5002159;28;20255;-91
2023/07/14 00:29:50;;;;;;;4.30;2.30;;;16.00;99.90;;;;;;4976950;28;20041;-90
2023/07/14 00:32:21;;;;;;;3.70;2.38;;;15.90;99.90;;;;;;5001421;28;20386;-90
2023/07/14 00:34:47;;;;;;;4.05;2.53;;;15.90;99.90;;;;;;5021532;28;20123;-90
2023/07/14 00:37:13;;;;;;;4.13;2.38;;;15.80;99.90;;;;;;5027913;28;20119;-90
2023/07/14 00:39:40;;;;;;;3.67;2.60;;;15.80;99.90;;;;;;4999252;28;20554;-91
2023/07/14 00:42:14;;;;;;;3.03;2.30;;;15.80;99.90;;;;;;5022056;28;20041;-91
2023/07/14 00:44:40;;;;;;;4.15;2.83;;;15.70;99.90;;;;;;5007090;28;20069;-91
2023/07/14 00:47:23;;;;;;;4.05;2.65;;;15.70;99.90;;;;;;4984796;28;20507;-90
2023/07/14 00:49:50;;;;;;;4.88;3.08;;;15.70;99.90;;;;;;5013826;28;20132;-91
2023/07/14 00:52:19;;;;;;;;;;;15.60;99.90;;;;;;5005538;28;20037;-90
2023/07/14 00:54:51;;;;;;;3.15;2.50;;;15.60;99.90;;;;;;5025744;28;19921;-90
2023/07/14 00:57:18;;;;;;;4.00;2.70;;;15.50;99.90;;;;;;5019461;28;20028;-90
2023/07/14 00:59:44;;;;;;;4.45;3.00;;;15.50;99.90;;;;;;5035565;28;20048;-90
2023/07/14 01:02:22;;;;;;;4.80;3.08;;;15.40;99.90;;;;;;5013593;28;20040;-91
2023/07/14 01:04:59;;;;;;;;;;;15.40;99.90;;;;;;5024677;28;20049;-90
2023/07/14 01:07:41;;;;;;;3.78;3.03;;;15.30;99.90;;;;;;5034669;28;19927;-91
2023/07/14 01:10:13;;;;;;;3.97;3.05;;;15.30;99.90;;;;;;5035562;28;20041;-91
2023/07/14 01:12:42;;;;;;;4.55;3.00;;;;;;;;;;5032455;28;20101;-92
2023/07/14 01:15:09;;;;;;;4.35;2.92;;;15.20;99.90;;;;;;5028453;28;20075;-91
2023/07/14 01:17:36;;;;;;;5.17;3.00;;;15.20;99.90;;;;;;5017712;28;20040;-90
2023/07/14 01:20:08;;;;;;;;;;;15.20;99.90;;;;;;5028366;28;20052;-89
2023/07/14 01:22:39;;;;;;;6.05;3.40;;;15.20;99.90;;;;;;5009872;28;19924;-90
2023/07/14 01:25:24;;;;;;;5.30;3.22;;;15.20;99.90;;;;;;5018442;28;20083;-91
2023/07/14 01:27:49;;;;;;;5.60;3.55;;;15.20;99.90;;;;;;5033172;28;20510;-91
2023/07/14 01:30:17;;;;;;;5.07;3.28;;;15.20;99.90;;;;;;5024029;28;20132;-90
2023/07/14 01:32:49;;;;;;;3.53;2.97;;;15.20;99.90;;;;;;5014034;28;20037;-90
2023/07/14 01:35:17;;;;;;;3.88;3.13;;;15.10;99.90;;;;;;5014890;28;20041;-91
2023/07/14 01:37:43;;;;;;;4.65;2.92;;;15.20;99.90;;;;;;5017180;28;20090;-91
2023/07/14 01:40:18;;;;;;;4.10;3.35;;;15.20;99.90;;;;;;5021627;28;20048;-90
2023/07/14 01:42:48;;;;;;;6.95;3.45;;;15.10;99.90;;;;;;4999602;28;20041;-90
2023/07/14 01:45:18;;;;;;;4.82;3.58;;;15.10;99.90;;;;;;5006026;28;20365;-91
2023/07/14 01:47:47;;;;;;;6.50;3.83;;;15.10;99.90;;;;;;5018435;28;20044;-90
2023/07/14 01:50:21;;;;;;;8.63;4.15;;;15.10;99.90;;;;;;5020778;28;20033;-91
2023/07/14 01:52:51;;;;;;;4.93;3.47;;;14.60;99.90;;;;;;5013946;28;20703;-91
2023/07/14 01:55:19;;;;;;;5.43;4.38;;;15.00;99.90;;;;;;5024003;28;20060;-90
2023/07/14 01:57:47;;;;;;;5.25;4.00;;;15.00;99.90;;;;;;5028367;28;20101;-90
2023/07/14 02:00:12;;;;;;;;;;;15.00;99.90;;;;;;5026699;28;20091;-91
2023/07/14 02:02:40;;;;;;;5.30;4.13;;;14.90;99.90;;;;;;5018969;28;20447;-91
2023/07/14 02:05:14;;;;;;;5.68;4.40;;;14.90;99.90;;;;;;5014950;28;20049;-90
2023/07/14 02:07:40;;;;;;;6.50;4.63;;;14.90;99.90;;;;;;5025353;28;20048;-90
2023/07/14 02:10:18;;;;;;;6.00;4.33;;;14.90;99.90;;;;;;5006452;28;20119;-90
2023/07/14 02:12:46;;;;;;;;;;;14.90;99.90;;;;;;5025576;28;20037;-90
2023/07/14 02:15:20;;;;;;;5.43;4.47;;;14.80;99.90;;;;;;5005825;28;19948;-90
2023/07/14 02:17:47;;;;;;;7.80;4.47;;;14.80;99.90;;;;;;5020308;28;20039;-90
2023/07/14 02:20:20;;;;;;;6.88;5.00;;;14.80;99.90;;;;;;5019422;28;20132;-91
2023/07/14 02:22:48;;;;;;;5.63;4.75;;;14.80;99.90;;;;;;5027918;28;20045;-90
2023/07/14 02:25:17;;;;;;;6.57;4.70;;;14.80;99.90;;;;;;4985739;28;20128;-91
2023/07/14 02:27:43;;;;;;;6.72;5.00;;;14.80;99.90;;;;;;5018715;28;20132;-91
2023/07/14 02:30:14;;;;;;;6.28;4.82;;;14.80;99.90;;;;;;5000163;28;20128;-90
2023/07/14 02:32:45;;;;;;;7.30;4.55;;;14.80;99.90;;;;;;5009946;28;20037;-91
2023/07/14 02:35:19;;;;;;;5.90;4.75;;;14.80;99.90;;;;;;5022939;28;20053;-91
2023/07/14 02:38:04;;;;;;;5.55;5.05;;;14.80;99.90;;;;;;5027662;28;20049;-90
2023/07/14 02:40:33;;;;;;;6.57;5.32;;;14.70;99.90;;;;;;5012233;28;20076;-90
2023/07/14 02:42:59;;;;;;;6.15;5.22;;;14.80;99.90;;;;;;5032842;28;20051;-90
2023/07/14 02:45:26;;;;;;;6.63;6.00;;;14.80;99.90;;;;;;5002893;28;20128;-89
2023/07/14 02:47:56;;;;;;;5.10;4.60;;;14.80;99.90;;;;;;5028070;28;20656;-90
2023/07/14 02:50:21;;;;;;;6.28;5.20;;;14.80;99.90;;;;;;5026205;28;20036;-90
2023/07/14 02:52:47;;;;;;;6.38;5.25;;;14.80;99.90;;;;;;5017651;28;20075;-91
2023/07/14 02:55:13;;;;;;;6.32;5.25;;;14.80;99.90;;;;;;5005414;28;20049;-91
2023/07/14 02:57:39;;;;;;;6.47;5.40;;;14.80;99.90;;;;;;5013204;28;20041;-91
2023/07/14 03:00:08;;;;;;;5.97;5.38;;;14.80;99.90;;;;;;5000884;28;20135;-90
2023/07/14 03:02:34;;;;;;;8.73;5.32;;;14.80;99.90;;;;;;4997089;28;20048;-90
2023/07/14 03:05:00;;;;;;;6.97;5.70;;;14.80;99.90;;;;;;5008749;28;20052;-91
2023/07/14 03:07:26;;;;;;;6.68;5.20;;;14.80;99.90;;;;;;5003439;28;20098;-91
2023/07/14 03:09:52;;;;;;;6.72;5.00;;;14.80;99.90;;;;;;5024941;28;20070;-91
2023/07/14 03:12:18;;;;;;;6.90;6.10;;;14.80;99.90;;;;;;5005654;28;20045;-91
2023/07/14 03:14:44;;;;;;;7.30;5.37;;;14.80;99.90;;;;;;4994109;28;20067;-90
2023/07/14 03:17:11;;;;;;;6.82;6.05;;;14.70;99.90;;;;;;4997723;28;20039;-90
2023/07/14 03:19:37;;;;;;;6.88;5.57;;;14.70;99.90;;;;;;5024523;28;20040;-90
2023/07/14 03:22:03;;;;;;;6.82;5.93;;;14.70;99.90;;;;;;5012534;28;20041;-90
2023/07/14 03:24:28;;;;;;;7.07;5.40;;;14.70;99.90;;;;;;5013905;28;20131;-91
2023/07/14 03:26:55;;;;;;;7.85;5.70;;;14.70;99.90;;;;;;5007157;28;20037;-90
2023/07/14 03:29:20;;;;;;;6.85;5.95;;;14.70;99.90;;;;;;4995806;28;20037;-90
2023/07/14 03:31:46;;;;;;;7.53;5.55;;;14.70;99.90;;;;;;5015840;28;20033;-91
2023/07/14 03:34:12;;;;;;;7.05;5.57;;;14.60;99.90;;;;;;4982288;28;20087;-91
2023/07/14 03:36:37;;;;;;;8.45;6.28;;;14.60;99.90;;;;;;4996882;28;20081;-90
2023/07/14 03:39:21;;;;;;;7.68;5.72;;;14.60;99.90;;;;;;4972435;28;20128;-90
2023/07/14 03:41:47;;;;;;;7.05;5.63;;;14.60;99.90;;;;;;5019913;28;20100;-90
2023/07/14 03:44:13;;;;;;;7.88;5.88;;;14.60;99.90;;;;;;5005582;28;20040;-91
2023/07/14 03:46:39;;;;;;;7.85;6.05;;;14.60;99.90;;;;;;5023479;28;20124;-90
2023/07/14 03:49:04;;;;;;;6.57;5.47;;;14.60;99.90;;;;;;4995571;28;20037;-91
2023/07/14 03:51:31;;;;;;;5.63;5.07;;;14.60;99.90;;;;;;5008221;28;20051;-92
2023/07/14 03:53:57;;;;;;;7.35;5.32;;;14.60;99.90;;;;;;5002881;28;20071;-91
2023/07/14 03:56:22;;;;;;;6.55;5.65;;;14.60;99.90;;;;;;5011607;28;20048;-90
2023/07/14 03:58:48;;;;;;;9.10;5.45;;;14.70;99.90;;;;;;4988908;28;20052;-91
2023/07/14 04:01:14;;;;;;;8.15;5.70;;;14.70;99.90;;;;;;4998377;28;20088;-91
2023/07/14 04:03:40;;;;;;;7.07;5.20;;;14.70;99.90;;;;;;5007844;28;20037;-91
2023/07/14 04:06:06;;;;;;;7.00;5.05;;;14.70;99.90;;;;;;5002995;28;20116;-92
2023/07/14 04:08:39;;;;;;;5.88;4.90;;;14.70;99.90;;;;;;5030670;28;20175;-90
2023/07/14 04:11:05;;;;;;;6.78;4.80;;;14.80;99.90;;;;;;5015048;28;20044;-90
2023/07/14 04:13:35;;;;;;;6.22;5.18;;;14.80;99.90;;;;;;4999737;28;20397;-91
2023/07/14 04:16:07;;;;;;;5.60;5.00;;;14.80;99.90;;;;;;4981576;28;20064;-89
2023/07/14 04:18:33;;;;;;;7.38;5.13;;;14.90;99.90;;;;;;5009544;28;20038;-90
2023/07/14 04:21:01;;;;;;;6.50;4.78;;;15.00;99.90;;;;;;5013368;28;20115;-91
2023/07/14 04:23:27;;;;;;;5.80;4.65;;;15.00;99.90;;;;;;5019389;28;20033;-91
2023/07/14 04:25:53;;;;;;;5.65;4.40;;;15.00;99.90;;;;;;5017445;28;20146;-90
2023/07/14 04:28:19;;;;;;;5.38;4.40;;;15.10;99.90;;;;;;5006851;28;20029;-91
2023/07/14 04:30:53;;;;;;;6.68;4.50;;;15.20;99.90;;;;;;5027279;28;20131;-91
2023/07/14 04:33:18;;;;;;;6.63;4.22;;;15.20;99.90;;;;;;5017712;28;20045;-91
2023/07/14 04:35:44;;;;;;;5.95;4.15;;;15.20;99.90;;;;;;4985717;28;20052;-90
2023/07/14 04:38:10;;;;;;;5.22;4.47;;;15.30;99.90;;;;;;5003558;28;20032;-90
2023/07/14 04:40:40;;;;;;;4.80;4.20;;;15.30;99.90;;;;;;4996700;28;20044;-89
2023/07/14 04:43:05;;;;;;;5.93;4.47;;;15.40;99.90;;;;;;5017607;28;20106;-91
2023/07/14 04:45:36;;;;;;;7.22;3.90;;;15.50;99.90;;;;;;5007312;28;20037;-90
2023/07/14 04:48:01;;;;;;;5.97;3.70;;;15.40;99.90;;;;;;5005864;28;20039;-91
2023/07/14 04:50:27;;;;;;;5.85;4.05;;;15.50;99.90;;;;;;5009084;28;20037;-91
2023/07/14 04:52:53;;;;;;;6.15;3.42;;;15.60;99.90;;;;;;5001643;28;20048;-84
2023/07/14 04:55:18;;;;;;;5.30;3.35;;;15.60;99.90;;;;;;5004789;28;20044;-83
2023/07/14 04:57:44;;;;;;;5.22;3.80;;;15.70;99.90;;;;;;4999005;28;20045;-83
2023/07/14 05:00:11;;;;;;;5.95;3.55;;;15.80;99.90;;;;;;4998665;28;20436;-83
2023/07/14 05:02:37;;;;;;;6.03;3.22;;;15.90;99.90;;;;;;5028379;28;20072;-83
2023/07/14 05:05:29;;;;;;;4.78;3.35;;;16.10;99.90;;;;;;4988113;28;20484;-82
2023/07/14 05:07:57;;;;;;;4.43;2.85;;;16.30;99.90;;;;;;4986027;28;20064;-84
2023/07/14 05:10:24;;;;;;;3.75;2.60;;;16.40;99.90;;;;;;5017177;28;20028;-83
2023/07/14 05:12:51;;;;;;;4.25;2.90;;;16.60;99.90;;;;;;5002410;28;20527;-83
2023/07/14 05:15:17;;;;;;;4.22;3.03;;;16.60;99.90;;;;;;4984893;28;20036;-84
2023/07/14 05:17:44;;;;;;;3.70;2.40;;;16.60;99.90;;;;;;5004990;28;20049;-85
2023/07/14 05:20:12;;;;;;;3.72;3.13;;;16.70;99.90;;;;;;4985689;28;20468;-82
2023/07/14 05:22:45;;;;;;;3.28;2.67;;;16.80;99.90;;;;;;4989658;28;20049;-84
2023/07/14 05:25:12;;;;;;;4.07;2.83;;;16.80;99.90;;;;;;5021544;28;20044;-84
2023/07/14 05:27:38;;;;;;;4.80;2.60;;;16.90;99.90;;;;;;5008998;28;20037;-84
2023/07/14 05:30:06;;;;;;;3.83;2.77;;;17.00;99.90;;;;;;5011309;28;20545;-84
2023/07/14 05:32:32;;;;;;;3.72;2.45;;;17.10;99.90;;;;;;5010163;28;20467;-85
2023/07/14 05:34:58;;;;;;;4.97;2.50;;;17.20;99.90;;;;;;5009675;28;20061;-84
2023/07/14 05:37:24;;;;;;;3.75;2.58;;;17.30;99.90;;;;;;5006614;28;20544;-85
2023/07/14 05:39:51;;;;;;;4.13;2.88;;;17.40;99.90;;;;;;5008615;28;20091;-85
2023/07/14 05:42:17;;;;;;;4.60;2.70;;;17.90;99.90;;;;;;5000791;28;20048;-85
2023/07/14 05:44:43;;;;;;;4.10;2.28;;;18.40;99.90;;;;;;5007323;28;20044;-83
2023/07/14 05:47:09;;;;;;;4.38;2.20;;;19.10;99.90;;;;;;5001328;28;20045;-87
2023/07/14 05:49:35;;;;;;;4.78;2.30;;;19.90;99.90;;;;;;5035295;28;20115;-86
2023/07/14 05:52:01;;;;;;;6.78;2.30;;;20.60;99.90;;;;;;5037081;28;20041;-86
2023/07/14 05:54:27;;;;;;;4.50;2.17;;;21.30;99.90;;;;;;5048425;28;20052;-86
2023/07/14 05:56:53;;;;;;;7.35;2.20;;;21.70;99.90;;;;;;5039378;28;20024;-87
2023/07/14 05:59:19;;;;;;;3.00;2.03;;;22.10;99.90;;;;;;5035187;28;20139;-86
2023/07/14 06:01:48;;;;;;;3.63;2.10;;;22.50;99.90;;;;;;5022691;28;20036;-87
2023/07/14 06:04:18;;;;;;;5.28;2.00;;;22.90;99.90;;;;;;5011277;28;20128;-85
2023/07/14 06:06:44;;;;;;;4.32;1.88;;;23.30;99.90;;;;;;5014147;28;20045;-93
2023/07/14 06:09:24;;;;;;;4.72;2.10;;;23.70;99.90;;;;;;5024116;28;20485;-93
2023/07/14 06:11:50;;;;;;;2.88;1.60;;;24.00;99.90;;;;;;5019975;28;20048;-92
2023/07/14 06:14:15;;;;;;;3.33;1.67;;;24.40;99.90;;;;;;5028977;28;20044;-95
2023/07/14 06:16:41;;;;;;;4.40;1.83;;;24.80;99.90;;;;;;5007792;28;20041;-94
2023/07/14 06:19:07;;;;;;;2.27;1.63;;;25.00;99.90;;;;;;4982769;28;20051;-93
2023/07/14 06:21:44;;;;;;;3.73;2.20;;;25.40;99.90;;;;;;5003413;28;20427;-93
2023/07/14 06:24:10;;;;;;;4.43;1.55;;;25.60;99.90;;;;;;5009005;28;20432;-92
2023/07/14 06:27:33;;;;;;;2.33;1.30;;;25.90;99.90;;;;;;5021245;28;20044;-92
2023/07/14 06:30:09;;;;;;;4.75;1.52;;;26.10;99.90;;;;;;4998475;28;20045;-91
2023/07/14 06:32:35;;;;;;;3.58;1.60;;;26.60;99.90;;;;;;5009526;28;20520;-91
2023/07/14 06:35:01;;;;;;;4.32;1.35;;;27.10;99.90;;;;;;5003573;28;20052;-92
2023/07/14 06:37:27;;;;;;;2.57;1.30;;;27.40;99.90;;;;;;4992241;28;20045;-92
2023/07/14 06:39:53;;;;;;;3.72;1.25;;;27.70;99.90;;;;;;5005510;28;20045;-92
2023/07/14 06:42:19;;;;;;;;;;;27.80;99.90;;;;;;5015469;28;20703;-93
2023/07/14 06:44:45;;;;;;;3.25;1.50;;;27.90;95.40;;;;;;5026374;28;19999;-91
2023/07/14 06:47:14;;;;;;;3.57;1.30;;;28.20;99.90;;;;;;5015486;28;20073;-92
2023/07/14 06:49:40;;;;;;;4.43;1.40;;;28.30;99.90;;;;;;5023409;28;20508;-93
2023/07/14 06:52:06;;;;;;;3.85;1.58;;;28.50;99.90;;;;;;5030279;28;20045;-92
2023/07/14 06:54:32;;;;;;;3.22;1.50;;;28.80;99.90;;;;;;5012026;28;20040;-93
2023/07/14 06:56:58;;;;;;;5.40;1.70;;;29.00;98.60;;;;;;5016906;28;20049;-92
2023/07/14 06:59:25;;;;;;;2.17;1.43;;;29.00;96.30;;;;;;5006236;28;20471;-92
2023/07/14 07:01:50;;;;;;;3.17;1.60;;;29.10;95.80;;;;;;5005593;28;20590;-92
2023/07/14 07:04:16;;;;;;;1.73;1.33;;;29.20;94.80;;;;;;4995708;28;20123;-92
2023/07/14 07:06:42;;;;;;;2.90;1.90;;;29.30;93.60;;;;;;5000030;28;20148;-93
2023/07/14 07:09:08;;;;;;;4.40;1.90;;;29.50;92.80;;;;;;5025758;28;20044;-91
2023/07/14 07:11:34;;;;;;;4.03;1.35;;;29.60;92.10;;;;;;5016194;28;20048;-91
2023/07/14 07:14:00;;;;;;;3.45;1.38;;;29.80;91.50;;;;;;5037319;28;20102;-93
2023/07/14 07:16:25;;;;;;;3.33;1.40;;;29.70;91.10;;;;;;5006074;28;20052;-92
2023/07/14 07:18:51;;;;;;;2.85;1.25;;;29.80;90.00;;;;;;5037110;28;20119;-92
2023/07/14 07:21:17;;;;;;;2.42;1.20;;;29.70;90.00;;;;;;5000960;28;20037;-91
2023/07/14 07:23:43;;;;;;;2.25;1.40;;;29.70;88.50;;;;;;4987695;28;20698;-93
2023/07/14 07:26:09;;;;;;;3.47;1.40;;;29.90;88.70;;;;;;5013229;28;20125;-92
2023/07/14 07:28:35;;;;;;;3.05;1.17;;;30.10;87.80;;;;;;5012481;28;20041;-92
2023/07/14 07:31:11;;;;;;;2.53;1.25;;;30.30;86.90;;;;;;5005729;28;20074;-93
2023/07/14 07:33:41;;;;;;;1.95;0.95;;;30.50;83.80;;;;;;5019310;28;20075;-94
2023/07/14 07:36:27;;;;;;;2.33;0.82;;;30.40;82.90;;;;;;4989900;28;20041;-93
2023/07/14 07:38:53;;;;;;;2.03;1.10;;;30.30;84.10;;;;;;5003216;28;20040;-93
2023/07/14 07:41:22;;;;;;;2.78;0.80;;;30.40;83.40;;;;;;4997448;28;20049;-92
2023/07/14 07:43:48;;;;;;;2.35;1.10;;;30.50;82.60;;;;;;5006975;28;20037;-93
2023/07/14 07:46:14;;;;;;;3.15;1.10;;;30.20;81.90;;;;;;4987231;28;20038;-92
2023/07/14 07:48:42;;;;;;;2.15;1.00;;;30.20;81.40;;;;;;5007610;28;20404;-91
2023/07/14 07:51:08;;;;;;;1.88;0.90;;;29.90;79.70;;;;;;5018783;28;20060;-92
2023/07/14 07:53:34;;;;;;;2.17;0.88;;;30.10;79.60;;;;;;4995204;28;20050;-92
2023/07/14 07:56:01;;;;;;;1.70;0.90;;;30.10;79.60;;;;;;4990717;28;20084;-92
2023/07/14 07:58:27;;;;;;;3.78;0.82;;;30.30;79.30;;;;;;5013992;28;20040;-92
2023/07/14 08:00:54;;;;;;;;;;;30.40;78.50;;;;;;5004591;28;20117;-92
2023/07/14 08:03:20;;;;;;;2.27;0.83;;;30.10;75.30;;;;;;5013375;28;19921;-92
2023/07/14 08:05:46;;;;;;;2.72;0.80;;;29.70;78.60;;;;;;4986791;28;20049;-93
2023/07/14 08:08:12;;;;;;;4.07;1.00;;;28.90;78.80;;;;;;4983800;28;20048;-92
2023/07/14 08:10:42;;;;;;;2.63;1.00;;;28.40;80.20;;;;;;4976861;28;20041;-92
2023/07/14 08:13:11;;;;;;;2.35;0.82;;;28.00;80.40;;;;;;4995176;28;20038;-92
2023/07/14 08:15:37;;;;;;;1.98;0.80;;;27.50;81.90;;;;;;4986336;28;20045;-93
2023/07/14 08:18:04;;;;;;;1.88;1.20;;;27.30;83.00;;;;;;4985045;28;20050;-93
2023/07/14 08:20:30;;;;;;;2.67;0.95;;;26.80;83.10;;;;;;4998990;28;20038;-93
2023/07/14 08:22:56;;;;;;;2.13;0.98;;;26.30;83.40;;;;;;4989331;28;20492;-91
2023/07/14 08:25:23;;;;;;;1.95;1.00;;;25.80;84.40;;;;;;5000866;28;20096;-93
2023/07/14 08:27:50;;;;;;;4.53;1.00;;;25.50;85.80;;;;;;4971529;28;20107;-92
2023/07/14 08:30:17;;;;;;;3.35;1.27;;;25.30;86.80;;;;;;5000807;28;20043;-92
2023/07/14 08:32:43;;;;;;;3.00;0.90;;;25.30;89.30;;;;;;4991528;28;20048;-92
2023/07/14 08:35:09;;;;;;;3.33;1.00;;;25.60;88.60;;;;;;4974927;28;20045;-92
2023/07/14 08:37:35;;;;;;;;;;;26.20;88.20;;;;;;4979609;28;20037;-93
2023/07/14 08:40:00;;;;;;;2.15;1.10;;;26.80;86.60;;;;;;4985048;28;20058;-91
2023/07/14 08:42:37;;;;;;;3.37;1.03;;;27.60;85.10;;;;;;4981093;28;20050;-92
2023/07/14 08:45:03;;;;;;;2.03;1.03;;;28.00;84.10;;;;;;5006796;28;20404;-92
2023/07/14 08:47:49;;;;;;;3.87;1.10;;;27.70;83.50;;;;;;5014826;28;20467;-93
2023/07/14 08:50:28;;;;;;;3.65;1.02;;;27.10;81.50;;;;;;5010601;28;20550;-92
2023/07/14 08:53:03;;;;;;;2.58;0.90;;;26.30;82.70;;;;;;5013237;28;20642;-93
2023/07/14 08:55:32;;;;;;;1.58;1.00;;;25.50;83.30;;;;;;5012096;28;20737;-92
2023/07/14 08:58:09;;;;;;;2.60;1.25;;;25.00;84.50;;;;;;5015875;28;20053;-93
2023/07/14 09:00:38;;;;;;;2.17;0.90;;;25.00;85.60;;;;;;4982751;28;20581;-92
2023/07/14 09:03:35;;;;;;;2.22;1.00;;;25.70;86.80;;;;;;4988249;28;20495;-92
2023/07/14 09:06:10;;;;;;;3.53;1.10;;;26.30;83.10;;;;;;5001805;28;20123;-93
2023/07/14 09:08:36;;;;;;;1.67;1.00;;;26.60;80.70;;;;;;5003502;28;20091;-93
2023/07/14 09:11:30;;;;;;;1.60;0.75;;;26.90;81.60;;;;;;5024161;28;20499;-93
2023/07/14 09:14:09;;;;;;;1.95;0.90;;;27.30;79.60;;;;;;5013300;28;20128;-93
2023/07/14 09:16:40;;;;;;;2.50;1.00;;;27.50;79.20;;;;;;5017050;28;20412;-93
2023/07/14 09:19:19;;;;;;;1.60;0.85;;;27.10;80.10;;;;;;5029344;28;20041;-92
2023/07/14 09:22:16;;;;;;;2.38;1.00;;;26.40;80.60;;;;;;5019254;28;20515;-92
2023/07/14 09:24:57;;;;;;;2.63;0.80;;;25.60;80.20;;;;;;4985748;28;20052;-96
2023/07/14 09:27:30;;;;;;;3.17;1.10;;;24.90;81.50;;;;;;5026937;28;20083;-96
2023/07/14 09:29:59;;;;;;;2.13;0.80;;;24.90;82.40;;;;;;5024190;28;20127;-96
2023/07/14 09:32:32;;;;;;;1.50;0.85;;;25.00;81.20;;;;;;5028795;28;20037;-96
2023/07/14 09:35:18;;;;;;;0.93;0.80;;;25.20;80.30;;;;;;5038555;28;20041;-96
2023/07/14 09:38:10;;;;;;;1.45;1.00;;;25.40;81.00;;;;;;5028705;28;20052;-96
2023/07/14 09:40:40;;;;;;;2.28;1.17;;;25.60;81.70;;;;;;5044082;28;20041;-96
2023/07/14 09:43:10;;;;;;;1.55;0.70;;;25.70;81.30;;;;;;5021383;28;20037;-96
2023/07/14 09:45:41;;;;;;;2.38;0.77;;;25.90;82.60;;;;;;5022616;28;20033;-96
2023/07/14 09:48:26;;;;;;;2.20;1.02;;;26.00;81.90;;;;;;5041208;28;20102;-95
2023/07/14 09:51:02;;;;;;;1.27;0.77;;;26.10;81.00;;;;;;5023428;28;20045;-96
2023/07/14 09:53:31;;;;;;;1.75;0.93;;;26.20;79.90;;;;;;5025444;28;20036;-96
2023/07/14 09:56:12;;;;;;;2.53;0.85;;;26.30;78.70;;;;;;5026025;28;20141;-96
2023/07/14 09:58:56;;;;;;;4.38;0.77;;;26.40;78.90;;;;;;5020474;28;20067;-96
2023/07/14 10:01:25;;;;;;;2.58;1.10;;;26.50;79.60;;;;;;5011051;28;20088;-96
2023/07/14 10:03:55;;;;;;;1.73;0.80;;;26.60;78.50;;;;;;4994383;28;20041;-96
2023/07/14 10:06:25;;;;;;;1.90;0.90;;;26.60;78.60;;;;;;5025556;28;20057;-96
2023/07/14 10:08:53;;;;;;;1.95;0.90;;;26.50;78.50;;;;;;5012873;28;20037;-96
2023/07/14 10:11:29;;;;;;;2.15;1.10;;;26.40;79.00;;;;;;5029183;28;20049;-96
2023/07/14 10:14:01;;;;;;;1.88;0.90;;;26.40;78.60;;;;;;5021445;28;20048;-96
2023/07/14 10:16:40;;;;;;;1.92;0.98;;;26.30;77.60;;;;;;5038552;28;20123;-96
2023/07/14 10:19:18;;;;;;;1.38;0.90;;;26.50;77.80;;;;;;5013768;28;20052;-95
2023/07/14 10:22:04;;;;;;;1.95;0.77;;;26.40;76.80;;;;;;5018299;28;20041;-96
2023/07/14 10:24:31;;;;;;;1.38;0.50;;;26.20;77.20;;;;;;5024679;28;20167;-96
2023/07/14 10:27:13;;;;;;;1.67;0.90;;;26.00;78.40;;;;;;5033127;28;20071;-96
2023/07/14 10:30:00;;;;;;;1.38;0.80;;;25.80;78.90;;;;;;5021069;28;20071;-96
2023/07/14 10:32:41;;;;;;;1.65;0.82;;;25.60;78.70;;;;;;5023887;28;20102;-96
2023/07/14 10:38:47;;;;;;;2.40;1.00;;;25.20;79.20;;;;;;4981191;28;20043;-96
2023/07/14 10:41:22;;;;;;;3.70;1.10;;;25.30;82.20;;;;;;5016528;28;20111;-96
2023/07/14 10:43:54;;;;;;;2.05;1.13;;;25.50;79.80;;;;;;5030442;28;20404;-96
2023/07/14 10:47:01;;;;;;;2.17;0.98;;;25.50;79.30;;;;;;5024148;28;20037;-96
2023/07/14 10:50:03;;;;;;;2.03;0.90;;;25.40;78.90;;;;;;5041628;28;20016;-96
2023/07/14 10:53:28;;;;;;;2.08;0.85;;;25.60;78.60;;;;;;5038898;28;20108;-96
2023/07/14 10:56:02;;;;;;;1.90;0.93;;;25.60;78.50;;;;;;4957258;28;20047;-96
2023/07/14 10:58:46;;;;;;;2.25;1.45;;;25.40;79.50;;;;;;4940168;28;20035;-96
2023/07/14 11:01:20;;;;;;;1.67;0.88;;;25.00;78.60;;;;;;4964248;28;20046;-96
2023/07/14 11:04:18;;;;;;;3.28;0.75;;;24.70;80.00;;;;;;4943572;28;20550;-96
2023/07/14 11:06:55;;;;;;;3.42;1.02;;;24.70;80.50;;;;;;4942706;28;20564;-96
2023/07/14 11:09:21;;;;;;;2.08;1.20;;;24.80;81.10;;;;;;5024112;28;20053;-96
2023/07/14 11:12:22;;;;;;;1.60;0.90;;;25.00;81.80;;;;;;5038374;28;20036;-96
2023/07/14 11:14:58;;;;;;;1.90;1.10;;;25.10;82.20;;;;;;5034586;28;20067;-96
2023/07/14 11:17:55;;;;;;;2.33;1.10;;;25.30;81.60;;;;;;5041436;28;20037;-96
2023/07/14 11:20:56;;;;;;;3.60;0.82;;;25.40;82.00;;;;;;5061185;28;20045;-96
2023/07/14 11:23:35;;;;;;;1.83;1.00;;;25.10;80.30;;;;;;5042037;28;20072;-96
2023/07/14 11:26:17;;;;;;;1.90;1.00;;;24.90;80.90;;;;;;5043778;28;20099;-96
2023/07/14 11:29:04;;;;;;;1.85;1.15;;;24.70;81.50;;;;;;5019518;28;20044;-96
2023/07/14 11:31:39;;;;;;;2.60;1.35;;;24.50;82.20;;;;;;5035801;28;20037;-96
2023/07/14 11:34:09;;;;;;;2.80;1.58;;;24.40;82.40;;;;;;5026377;28;20041;-96
2023/07/14 11:36:56;;;;;;;2.88;1.00;;;24.40;82.60;;;;;;5032494;28;20037;-96
2023/07/14 11:39:54;;;;;;;3.90;1.50;;;24.50;83.50;;;;;;5034923;28;20037;-96
2023/07/14 11:42:30;;;;;;;2.85;1.48;;;24.60;84.10;;;;;;5024718;28;20041;-96
2023/07/14 11:45:02;;;;;;;2.35;1.45;;;24.70;84.30;;;;;;5033088;28;20113;-96
2023/07/14 11:47:47;;;;;;;2.88;1.00;;;24.70;84.10;;;;;;5046851;28;20049;-96
2023/07/14 11:50:18;;;;;;;3.70;1.45;;;24.70;85.20;;;;;;5015458;28;20049;-96
2023/07/14 11:53:20;;;;;;;2.53;1.10;;;24.70;84.60;;;;;;5033417;28;20105;-96
2023/07/14 11:56:18;;;;;;;2.33;1.25;;;24.70;85.00;;;;;;4990491;28;20076;-96
2023/07/14 11:58:49;;;;;;;3.80;1.47;;;24.30;87.20;;;;;;5019050;28;20092;-96
2023/07/14 12:01:35;;;;;;;2.60;1.20;;;24.30;86.70;;;;;;5036213;28;20075;-96
2023/07/14 12:04:34;;;;;;;1.75;1.10;;;24.20;86.10;;;;;;5029497;28;20033;-96
2023/07/14 12:07:22;;;;;;;2.25;1.35;;;24.20;89.90;;;;;;4989025;28;20048;-96
2023/07/14 12:10:15;;;;;;;1.92;1.27;;;24.30;86.80;;;;;;5042059;28;20048;-96
2023/07/14 12:13:04;;;;;;;3.17;1.65;;;24.40;85.50;;;;;;5024304;28;20040;-96
2023/07/14 12:15:55;;;;;;;2.40;1.30;;;24.40;85.40;;;;;;5026489;28;20101;-96
2023/07/14 12:19:02;;;;;;;1.77;1.35;;;24.40;86.60;;;;;;5027887;28;20128;-96
2023/07/14 12:22:00;;;;;;;2.53;1.23;;;24.40;86.60;;;;;;4975604;28;20138;-96
2023/07/14 12:24:42;;;;;;;1.67;1.20;;;24.50;85.30;;;;;;5022364;28;20057;-96
2023/07/14 12:27:47;;;;;;;2.65;1.20;;;24.40;85.20;;;;;;5039662;28;20457;-96
2023/07/14 12:30:24;;;;;;;1.63;1.00;;;24.50;84.70;;;;;;5026690;28;20048;-95
2023/07/14 12:33:04;;;;;;;3.00;1.20;;;24.50;86.10;;;;;;5033737;28;20052;-96
2023/07/14 12:35:32;;;;;;;1.73;1.23;;;24.50;85.60;;;;;;5038418;28;20040;-96
2023/07/14 12:38:39;;;;;;;1.70;1.00;;;24.70;85.80;;;;;;5031976;28;20037;-96
2023/07/14 12:41:06;;;;;;;2.47;1.35;;;24.70;86.70;;;;;;5046673;28;20055;-96
2023/07/14 12:43:35;;;;;;;1.80;1.33;;;24.70;85.40;;;;;;5013033;28;20056;-96
2023/07/14 12:46:26;;;;;;;1.75;1.13;;;24.50;85.20;;;;;;5024747;28;20039;-96
2023/07/14 12:49:22;;;;;;;2.42;1.35;;;24.30;85.40;;;;;;5016036;28;20120;-96
2023/07/14 12:52:03;;;;;;;1.95;1.00;;;24.00;87.40;;;;;;5011019;28;20025;-96
2023/07/14 12:55:26;;;;;;;;;;;;;;;;;;;;;
2023/07/14 12:58:24;;;;;;;2.10;1.30;;;23.60;89.70;;;;;;5040804;28;20049;-95
2023/07/14 13:01:16;;;;;;;2.05;1.30;;;23.60;90.80;;;;;;5017285;28;20056;-96
2023/07/14 13:04:07;;;;;;;;;;;;;;;;;;;;;
2023/07/14 13:06:43;;;;;;;1.40;1.25;;;23.50;90.30;;;;;;5029884;28;20055;-96
2023/07/14 13:09:23;;;;;;;1.73;1.10;;;23.60;90.60;;;;;;5007572;28;20061;-96
2023/07/14 13:11:54;;;;;;;2.50;1.50;;;23.60;91.10;;;;;;5022629;28;20044;-96
2023/07/14 13:14:31;;;;;;;1.88;1.42;;;23.60;90.80;;;;;;5022081;28;20176;-96
2023/07/14 13:17:09;;;;;;;1.95;1.20;;;23.70;91.10;;;;;;5026508;28;20061;-96
2023/07/14 13:27:42;;;;;;;1.88;1.30;;;23.70;90.00;;;;;;4965586;28;20039;-96
2023/07/14 13:34:38;;;;;;;2.03;1.30;;;23.60;90.40;;;;;;4971572;28;20077;-96